• Join FlightAware (Why Join?)
  • Login
  • US Flag 
07:01AM EDT


 

Airport Tracker/Info


-or-


 

Live Flight TrackerFlight Track Log ✈ AAL1358 ✈ 29-Apr-2013 ✈ KSEA - KORD

Flight Track Log - Related Links

Times and Time Zones

All times are in EDT time to prevent confusion due to time zone crossing. See the AAL1358 flight status page for this flight to view local times or setup timezone preferences in your user account.

Time Position Orientation Groundspeed Altitude Reporting Facility
EDT Latitude Longitude Course Direction KTS MPH feet Rate Location/Type
07:14PM 47.4258 -122.3089 90° East 168 193 1,600  Level Seattle Center
07:15PM 47.3969 -122.3086 180° South 173 199 2,600 2,100 Climbing Seattle Center
07:17PM 47.4167 -121.7171 90° East  Level FlightAware Approximate
07:18PM 47.4167 -121.5217 90° East  Level FlightAware Approximate
07:19PM 47.4167 -121.3263 90° East  Level FlightAware Approximate
07:20PM 47.4030 -121.8250 180° South 355 409 14,000  Level FlightAware
07:21PM 47.4260 -121.7180 72° East 388 447 15,800 2,520 Climbing FlightAware
07:21PM 47.4280 -121.6020 88° East 412 474 17,600 2,400 Climbing FlightAware
07:22PM 47.4270 -121.5020 91° East 426 490 19,000 960 Climbing FlightAware
07:23PM 47.4270 -121.3850 90° East 426 490 19,000  Level FlightAware
07:24PM 47.4270 -121.2860 90° East 426 490 19,000 3,420 Level FlightAware
07:24PM 47.4200 -121.0910 93° East 472 543 23,900 4,140 Climbing FlightAware
07:25PM 47.4180 -121.0000 92° East 493 567 24,200 960 Climbing FlightAware
07:26PM 47.4160 -120.8440 91° East 514 592 25,100 1,260 Climbing FlightAware
07:26PM 47.4120 -120.6770 92° East 532 612 26,100 1,320 Climbing FlightAware
07:27PM 47.4080 -120.5070 92° East 550 633 27,100 1,380 Climbing FlightAware
07:28PM 47.3960 -120.3640 97° East 564 649 28,100 1,380 Climbing FlightAware
07:28PM 47.3660 -120.1870 104° East 572 658 29,100 1,500 Climbing FlightAware
07:29PM 47.3410 -120.0410 104° East 578 665 30,300 840 Climbing FlightAware
07:30PM 47.3140 -119.8850 104° East 578 665 30,300 960 Level FlightAware
07:31PM 47.2760 -119.6750 105° East 584 672 31,900 960 Climbing FlightAware
07:31PM 47.2540 -119.5430 104° East 584 672 31,900  Level FlightAware
07:32PM 47.2320 -119.4120 104° East 584 672 31,900  Level FlightAware
07:33PM 47.2100 -119.2810 104° East 584 672 31,900  Level FlightAware
07:34PM 47.1820 -119.1170 104° East 584 672 31,900  Level FlightAware
07:34PM 47.1600 -118.9860 104° East 584 672 31,900  Level FlightAware
07:35PM 47.1370 -118.8550 104° East 584 672 31,900  Level FlightAware
07:36PM 47.1150 -118.7240 104° East 584 672 31,900  Level FlightAware
07:36PM 47.0930 -118.5930 104° East 584 672 31,900  Level FlightAware
07:37PM 47.0650 -118.4290 104° East 584 672 31,900  Level FlightAware
07:38PM 47.0430 -118.2980 104° East 584 672 31,900  Level FlightAware
07:38PM 47.0210 -118.1680 104° East 584 672 31,900  Level FlightAware
07:39PM 46.9980 -118.0370 104° East 584 672 31,900  Level FlightAware
07:40PM 46.9760 -117.9060 104° East 584 672 31,900 4,500 Level FlightAware
07:40PM 46.8544 -117.5906 104° East 550 633 37,000 3,480 Climbing Salt Lake Center
07:41PM 46.8083 -117.3767 107° East 556 640 36,900  Descending Seattle Center
07:42PM 46.7631 -117.1669 107° East 551 634 37,000  Climbing Seattle Center
07:43PM 46.7161 -116.9556 108° East 551 634 36,900  Descending Seattle Center
07:44PM 46.6681 -116.7419 108° East 557 641 37,000  Climbing Seattle Center
07:45PM 46.6211 -116.5294 108° East 556 640 36,900  Descending Seattle Center
07:46PM 46.5728 -116.3161 108° East 558 642 37,000  Climbing Seattle Center
07:47PM 46.5236 -116.1036 109° East 558 642 36,900 -60 Descending Seattle Center
07:48PM 46.4875 -115.8861 103° East 553 636 36,900  Level Seattle Center
07:49PM 46.4633 -115.6681 99° East 552 635 37,000  Climbing Seattle Center
07:50PM 46.4392 -115.4453 99° East 559 643 37,000 -60 Level Seattle Center
07:51PM 46.4097 -115.1814 99° East 556 640 36,900  Descending Seattle Center
07:52PM 46.3844 -114.9647 100° East 553 636 37,000  Climbing Seattle Center
07:53PM 46.3594 -114.7506 100° East 547 629 37,000 -60 Level Seattle Center
07:54PM 46.3339 -114.5331 100° East 548 631 36,900  Descending Seattle Center
07:55PM 46.3072 -114.3139 100° East 553 636 37,000  Climbing Seattle Center
07:56PM 46.2797 -114.0936 100° East 556 640 37,000 -120 Level Seattle Center
07:57PM 46.2753 -114.0528 99° East 550 633 36,900 -120 Descending Salt Lake Center
07:58PM 46.2478 -113.8339 100° East 555 639 36,900  Level Salt Lake Center
07:59PM 46.2197 -113.6197 101° East 548 631 37,000  Climbing Salt Lake Center
08:00PM 46.1861 -113.3606 101° East 550 633 36,900  Descending Salt Lake Center
08:01PM 46.1556 -113.1383 101° East 543 625 37,000  Climbing Salt Lake Center
08:02PM 46.1278 -112.9261 101° East 540 621 37,000  Level Salt Lake Center
08:03PM 46.0992 -112.7131 101° East 542 624 37,000  Level Salt Lake Center
08:04PM 46.0706 -112.5017 101° East 539 620 37,000  Level Salt Lake Center
08:05PM 46.0406 -112.2906 101° East 537 618 37,000  Level Salt Lake Center
08:06PM 46.0114 -112.0819 101° East 533 613 37,000  Level Salt Lake Center
08:07PM 45.9856 -111.8775 100° East 522 601 37,000  Level Salt Lake Center
08:08PM 45.9642 -111.6719 98° East 521 600 37,000  Level Salt Lake Center
08:09PM 45.9414 -111.4633 99° East 524 603 37,000  Level Salt Lake Center
08:10PM 45.9178 -111.2522 99° East 528 608 37,000  Level Salt Lake Center
08:11PM 45.8936 -111.0378 99° East 524 603 37,000  Level Salt Lake Center
08:12PM 45.8694 -110.8300 99° East 518 596 37,000  Level Salt Lake Center
08:13PM 45.8394 -110.5797 100° East 526 605 37,000  Level Salt Lake Center
08:14PM 45.8156 -110.3831 100° East 524 603 37,000  Level Salt Lake Center
08:15PM 45.7919 -110.1869 100° East 523 602 37,000  Level Salt Lake Center
08:16PM 45.7633 -109.9569 100° East 524 603 37,000  Level Salt Lake Center
08:17PM 45.7403 -109.7603 99° East 524 603 37,000  Level Salt Lake Center
08:18PM 45.7100 -109.5317 101° East 524 603 37,000  Level Salt Lake Center
08:19PM 45.6847 -109.3369 100° East 521 600 37,000  Level Salt Lake Center
08:20PM 45.6583 -109.1428 101° East 520 598 37,000  Level Salt Lake Center
08:21PM 45.6278 -108.9142 101° East 523 602 37,000  Level Salt Lake Center
08:22PM 45.6011 -108.7178 101° East 526 605 37,000  Level Salt Lake Center
08:23PM 45.5686 -108.4858 101° East 532 612 37,000  Level Salt Lake Center
08:24PM 45.5406 -108.2831 101° East 541 623 37,000  Level Salt Lake Center
08:25PM 45.5119 -108.0811 101° East 541 623 37,000  Level Salt Lake Center
08:26PM 45.4906 -107.8411 97° East 543 625 37,000  Level Salt Lake Center
08:27PM 45.4786 -107.6367 95° East 539 620 37,000  Level Salt Lake Center
08:28PM 45.4661 -107.4308 95° East 541 623 37,000  Level Salt Lake Center
08:29PM 45.4511 -107.1917 95° East 543 625 37,000  Level Salt Lake Center
08:31PM 45.4375 -106.9861 95° East 544 626 37,000  Level Salt Lake Center
08:32PM 45.4239 -106.7567 95° East 527 606 37,000  Level Salt Lake Center
08:33PM 45.4108 -106.5597 95° East 523 602 37,000  Level Salt Lake Center
08:34PM 45.3969 -106.3611 96° East 525 604 37,000  Level Salt Lake Center
08:35PM 45.3800 -106.1294 96° East 526 605 37,000  Level Salt Lake Center
08:36PM 45.3653 -105.9308 96° East 527 606 37,000  Level Salt Lake Center
08:37PM 45.3481 -105.7028 96° East 522 601 37,000  Level Salt Lake Center
08:38PM 45.3325 -105.5050 96° East 523 602 37,000  Level Salt Lake Center
08:39PM 45.3167 -105.3067 96° East 526 605 37,000  Level Salt Lake Center
08:40PM 45.2983 -105.0772 96° East 525 604 37,000  Level Salt Lake Center
08:41PM 45.2756 -104.8808 99° East 526 605 37,000  Level Salt Lake Center
08:42PM 45.2306 -104.6581 106° East 525 604 37,000  Level Salt Lake Center
08:43PM 45.1950 -104.4772 106° East 527 606 37,000  Level Salt Lake Center
08:44PM 45.1508 -104.2531 106° East 528 608 37,000  Level Salt Lake Center
08:45PM 45.1144 -104.0589 105° East 531 611 37,000  Level Salt Lake Center
08:46PM 45.0739 -103.8328 104° East 531 611 37,000  Level Salt Lake Center
08:47PM 45.0381 -103.6381 105° East 533 613 37,000  Level Salt Lake Center
08:48PM 45.0031 -103.4425 104° East 534 615 37,000  Level Salt Lake Center
08:49PM 44.9789 -103.2083 98° East 539 620 37,000  Level Salt Lake Center
08:50PM 44.9844 -103.0419 87° East 539 620 37,000  Level Minneapolis Center
08:51PM 44.9917 -102.8325 87° East 537 618 37,000  Level Minneapolis Center
08:52PM 44.9908 -102.6236 90° East 535 616 37,000  Level Minneapolis Center
08:53PM 44.9569 -102.4244 103° East 525 604 37,000  Level Minneapolis Center
08:54PM 44.9258 -102.2236 102° East 524 603 37,000  Level Minneapolis Center
08:55PM 44.8858 -101.9872 103° East 520 598 37,000  Level Minneapolis Center
08:56PM 44.8544 -101.7911 103° East 516 594 37,000  Level Minneapolis Center
08:57PM 44.8217 -101.5978 103° East 511 588 37,000  Level Minneapolis Center
08:58PM 44.7886 -101.4064 104° East 507 583 37,000  Level Minneapolis Center
08:59PM 44.7564 -101.2147 103° East 506 582 37,000  Level Minneapolis Center
09:00PM 44.7242 -101.0231 103° East 506 582 37,000  Level Minneapolis Center
09:01PM 44.6842 -100.7933 104° East 506 582 37,000  Level Minneapolis Center
09:02PM 44.6492 -100.6028 104° East 507 583 37,000  Level Minneapolis Center
09:03PM 44.6161 -100.4128 104° East 506 582 37,000  Level Minneapolis Center
09:04PM 44.5817 -100.2219 104° East 508 585 37,000  Level Minneapolis Center
09:05PM 44.5469 -100.0308 104° East 510 587 37,000  Level Minneapolis Center
09:06PM 44.5050 -99.8031 104° East 509 586 37,000  Level Minneapolis Center
09:07PM 44.4697 -99.6122 104° East 510 587 37,000  Level Minneapolis Center
09:08PM 44.4350 -99.4217 104° East 509 586 37,000  Level Minneapolis Center
09:09PM 44.3986 -99.2306 105° East 510 587 37,000  Level Minneapolis Center
09:10PM 44.3625 -99.0406 105° East 509 586 37,000  Level Minneapolis Center
09:11PM 44.3258 -98.8511 105° East 507 583 37,000  Level Minneapolis Center
09:13PM 44.2814 -98.6250 105° East 504 580 37,000  Level Minneapolis Center
09:14PM 44.2442 -98.4364 105° East 505 581 37,000  Level Minneapolis Center
09:15PM 44.2053 -98.2514 106° East 506 582 37,000  Level Minneapolis Center
09:16PM 44.1683 -98.0644 105° East 504 580 37,000  Level Minneapolis Center
09:17PM 44.1300 -97.8767 106° East 505 581 37,000  Level Minneapolis Center
09:18PM 44.0833 -97.6525 106° East 505 581 37,000  Level Minneapolis Center
09:19PM 44.0450 -97.4664 106° East 504 580 37,000  Level Minneapolis Center
09:20PM 44.0069 -97.2842 106° East 498 573 37,000  Level Minneapolis Center
09:21PM 43.9606 -97.0639 106° East 498 573 37,000  Level Minneapolis Center
09:22PM 43.9292 -96.9175 107° East 499 574 37,000  Level Minneapolis Center
09:23PM 43.8831 -96.7036 107° East 490 564 37,000  Level Minneapolis Center
09:28PM 43.7200 -95.7220 107° East 491 565 37,000  Level FlightAware
09:29PM 43.7000 -95.5960 102° East 491 565 37,000  Level FlightAware
09:30PM 43.6770 -95.4570 103° East 490 564 37,000  Level FlightAware
09:30PM 43.6630 -95.3660 102° East 490 564 37,000  Level FlightAware
09:31PM 43.6410 -95.2340 103° East 489 563 37,000  Level FlightAware
09:32PM 43.6170 -95.0910 103° East 488 562 37,000  Level FlightAware
09:32PM 43.5950 -94.9560 103° East 487 560 37,000  Level FlightAware
09:33PM 43.5750 -94.8380 103° East 485 558 37,000  Level FlightAware
09:34PM 43.5520 -94.7010 103° East 485 558 37,000  Level FlightAware
09:34PM 43.5310 -94.5810 104° East 484 557 37,000  Level FlightAware
09:35PM 43.5080 -94.4470 103° East 483 556 37,000  Level FlightAware
09:36PM 43.4790 -94.2820 104° East 479 551 37,000  Level FlightAware
09:37PM 43.4590 -94.1670 103° East 477 549 37,000  Level FlightAware
09:38PM 43.4360 -94.0330 103° East 475 547 37,000  Level FlightAware
09:38PM 43.4160 -93.9180 103° East 474 545 37,000  Level FlightAware
09:39PM 43.3950 -93.8000 104° East 472 543 37,000  Level FlightAware
09:40PM 43.3710 -93.6670 104° East 472 543 37,000  Level FlightAware
09:40PM 43.3490 -93.5490 104° East 475 547 37,000  Level FlightAware
09:41PM 43.3260 -93.4220 104° East 477 549 37,000  Level FlightAware
09:42PM 43.3050 -93.3050 104° East 476 548 37,000  Level FlightAware
09:42PM 43.2830 -93.1860 104° East 476 548 37,000  Level FlightAware
09:43PM 43.2580 -93.0530 104° East 475 547 37,000  Level FlightAware
09:44PM 43.2360 -92.9360 104° East 476 548 37,000  Level FlightAware
09:45PM 43.2120 -92.8070 104° East 476 548 37,000  Level FlightAware
09:45PM 43.1900 -92.6920 105° East 474 545 37,000  Level FlightAware
09:46PM 43.1680 -92.5760 105° East 468 539 37,000  Level FlightAware
09:47PM 43.1470 -92.4630 104° East 467 537 37,000 -360 Level FlightAware
09:47PM 43.1220 -92.3350 105° East 466 536 36,500 -900 Descending FlightAware
09:48PM 43.0990 -92.2160 105° East 469 540 35,800 -1,020 Descending FlightAware
09:49PM 43.0780 -92.1080 105° East 469 540 35,200 -960 Descending FlightAware
09:49PM 43.0540 -91.9830 105° East 470 541 34,500 -1,440 Descending FlightAware
09:50PM 43.0260 -91.8440 105° East 469 540 33,100 -1,800 Descending FlightAware
09:51PM 43.0050 -91.7370 105° East 470 541 32,000 -1,320 Descending FlightAware
09:51PM 42.9830 -91.6270 105° East 468 539 31,400 -720 Descending FlightAware
09:52PM 42.9620 -91.4890 102° East 467 537 31,000 -300 Descending FlightAware
09:53PM 42.9520 -91.3710 97° East 467 537 31,000  Level FlightAware
09:54PM 42.9420 -91.2420 96° East 468 539 31,000  Level FlightAware
09:54PM 42.9310 -91.1210 97° East 467 537 31,000  Level FlightAware
09:55PM 42.9220 -91.0050 96° East 469 540 31,000  Level FlightAware
09:56PM 42.9120 -90.8930 97° East 469 540 31,000  Level FlightAware
09:56PM 42.9080 -90.7570 92° East 469 540 31,000 -480 Level FlightAware
09:57PM 42.9080 -90.6400 90° East 466 536 30,400 -960 Descending FlightAware
09:58PM 42.9080 -90.5090 90° East 470 541 29,700 -960 Descending FlightAware
09:58PM 42.9080 -90.3890 90° East 474 545 29,100 -1,020 Descending FlightAware
09:59PM 42.9090 -90.2520 89° East 481 554 28,300 -1,020 Descending FlightAware
10:00PM 42.9090 -90.1490 90° East 485 558 27,800 -900 Descending FlightAware
10:01PM 42.8950 -90.0100 98° East 491 565 27,100 -540 Descending FlightAware
10:01PM 42.8530 -89.8810 114° Southeast 474 545 27,000 -600 Descending FlightAware
10:02PM 42.8170 -89.7800 116° Southeast 470 541 26,300 -1,020 Descending FlightAware
10:03PM 42.7760 -89.6570 114° Southeast 467 537 25,600 -1,020 Descending FlightAware
10:03PM 42.7400 -89.5510 115° Southeast 463 533 24,900 -1,200 Descending FlightAware
10:04PM 42.7040 -89.4460 115° Southeast 458 527 24,000 -1,500 Descending FlightAware
10:05PM 42.6650 -89.3320 115° Southeast 447 514 22,800 -2,100 Descending FlightAware
10:05PM 42.6300 -89.2310 115° Southeast 439 505 21,100 -2,760 Descending FlightAware
10:06PM 42.5910 -89.1190 115° Southeast 432 497 18,900 -3,000 Descending FlightAware
10:07PM 42.5580 -89.0220 115° Southeast 426 490 16,900 -3,000 Descending FlightAware
10:08PM 42.5210 -88.9150 115° Southeast 418 481 14,700 -3,000 Descending FlightAware
10:08PM 42.4870 -88.8180 115° Southeast 406 467 12,700 -2,640 Descending FlightAware
10:09PM 42.4570 -88.7330 116° Southeast 377 434 11,200 -1,740 Descending FlightAware
10:10PM 42.4240 -88.6410 116° Southeast 329 379 10,300 -1,020 Descending FlightAware
10:10PM 42.4000 -88.5720 115° Southeast 314 361 9,800 -900 Descending FlightAware
10:11PM 42.3900 -88.5440 116° Southeast 308 354 9,500 -960 Descending FlightAware
10:11PM 42.3720 -88.4920 115° Southeast 301 346 9,100 -480 Descending FlightAware
10:12PM 42.3570 -88.4490 115° Southeast 296 341 9,100 -240 Level FlightAware
10:12PM 42.3400 -88.3980 114° Southeast 293 337 8,900 -660 Descending FlightAware
10:12PM 42.3280 -88.3610 114° Southeast 289 333 8,500 -1,320 Descending FlightAware
10:13PM 42.3110 -88.3080 113° Southeast 285 328 7,700 -1,500 Descending FlightAware
10:13PM 42.3010 -88.2880 124° Southeast 280 322 7,400 -900 Descending FlightAware
10:14PM 42.2770 -88.2570 136° Southeast 277 319 7,100 -480 Descending FlightAware
10:14PM 42.2630 -88.2420 142° Southeast 278 320 7,100  Level FlightAware
10:14PM 42.2350 -88.2100 140° Southeast 255 293 7,100 -480 Level FlightAware
10:15PM 42.2120 -88.1840 140° Southeast 248 285 6,700 -1,200 Descending FlightAware
10:15PM 42.1870 -88.1550 139° Southeast 231 266 6,000 -1,440 Descending FlightAware
10:16PM 42.1650 -88.1290 139° Southeast 204 235 5,300 -1,320 Descending FlightAware
10:16PM 42.1480 -88.1110 142° Southeast 183 211 4,800 -1,200 Descending FlightAware
10:17PM 42.1280 -88.0880 140° Southeast 172 198 4,200 -1,020 Descending FlightAware
10:17PM 42.1090 -88.0670 141° Southeast 168 193 3,800 -900 Descending FlightAware
10:18PM 42.0950 -88.0520 142° Southeast 161 185 3,400 -840 Descending FlightAware
10:18PM 42.0820 -88.0360 138° Southeast 156 180 3,100 -900 Descending FlightAware
10:19PM 42.0650 -88.0170 140° Southeast 145 167 2,600 -840 Descending FlightAware
10:19PM 42.0510 -88.0020 141° Southeast 131 151 2,300 -660 Descending FlightAware
10:19PM 42.0390 -87.9880 139° Southeast 130 150 2,000 -660 Descending FlightAware
10:20PM 42.0250 -87.9730 141° Southeast 134 154 1,700 -720 Descending FlightAware
10:20PM 42.0110 -87.9560 138° Southeast 137 158 1,300 -780 Descending FlightAware
10:21PM 41.9980 -87.9420 141° Southeast 139 160 1,000 -720 Descending FlightAware
10:21PM 41.9880 -87.9300 138° Southeast 139 160 700 -720 Descending FlightAware